Time;durP1;ratioP1;P1;durP2;ratioP2;P2;SDS_P1;SDS_P2;PMS_P1;PMS_P2;Temp;Humidity;BMP_temperature;BMP_pressure;BME280_temperature;BME280_humidity;BME280_pressure;Samples;Min_cycle;Max_cycle;Signal;HPM_P1;HPM_P2
2021/01/11 00:02:26;;;;;;;1.83;0.47;;;25.60;75.50;;;;;;5068875;28;20410;-83
2021/01/11 00:04:53;;;;;;;1.13;0.50;;;26.00;71.30;;;;;;5068669;28;20512;-83
2021/01/11 00:07:20;;;;;;;2.25;0.40;;;25.80;73.50;;;;;;5073060;28;20398;-84
2021/01/11 00:09:47;;;;;;;0.70;0.22;;;25.60;70.20;;;;;;5068210;28;20424;-83
2021/01/11 00:12:14;;;;;;;1.65;0.40;;;25.40;72.40;;;;;;5067729;28;20809;-83
2021/01/11 00:14:41;;;;;;;2.10;0.40;;;25.30;74.80;;;;;;5068509;28;20440;-84
2021/01/11 00:17:08;;;;;;;2.35;0.70;;;25.50;71.70;;;;;;5068087;28;20374;-83
2021/01/11 00:19:35;;;;;;;2.03;0.60;;;25.40;71.90;;;;;;5068277;28;20497;-83
2021/01/11 00:22:02;;;;;;;2.78;0.40;;;25.60;74.60;;;;;;5065753;28;20401;-84
2021/01/11 00:24:29;;;;;;;2.20;0.63;;;26.00;70.40;;;;;;5065542;28;20389;-84
2021/01/11 00:26:57;;;;;;;1.13;0.52;;;26.60;68.70;;;;;;5068549;28;20393;-84
2021/01/11 00:29:24;;;;;;;2.00;0.40;;;27.30;66.30;;;;;;5066985;28;20390;-83
2021/01/11 00:31:51;;;;;;;3.78;0.57;;;28.20;64.90;;;;;;5069406;28;20391;-84
2021/01/11 00:34:18;;;;;;;3.03;0.68;;;28.70;64.20;;;;;;5070425;28;20753;-84
2021/01/11 00:36:50;;;;;;;2.05;0.40;;;29.20;63.10;;;;;;5071682;28;20860;-84
2021/01/11 00:39:17;;;;;;;1.83;0.47;;;29.30;60.80;;;;;;5071502;28;20414;-85
2021/01/11 00:41:44;;;;;;;2.30;0.50;;;29.80;61.60;;;;;;5071489;28;20880;-84
2021/01/11 00:44:11;;;;;;;2.50;0.73;;;29.70;57.30;;;;;;5070767;28;20445;-86
2021/01/11 00:46:38;;;;;;;1.38;0.30;;;29.90;59.90;;;;;;5070893;28;20381;-84
2021/01/11 00:49:05;;;;;;;1.77;0.30;;;29.80;59.10;;;;;;5067944;28;20442;-85
2021/01/11 00:51:32;;;;;;;1.02;0.32;;;29.60;60.30;;;;;;5062898;28;20370;-84
2021/01/11 00:53:59;;;;;;;1.40;0.50;;;30.00;55.50;;;;;;5071083;28;20420;-84
2021/01/11 00:56:33;;;;;;;2.95;0.80;;;29.90;59.50;;;;;;5071180;28;20744;-84
2021/01/11 00:59:00;;;;;;;2.20;0.50;;;30.10;56.50;;;;;;5070137;28;20494;-84
2021/01/11 01:01:27;;;;;;;1.25;0.30;;;29.50;57.00;;;;;;5070081;28;20892;-85
2021/01/11 01:03:54;;;;;;;3.30;0.80;;;28.90;60.70;;;;;;5070827;28;20397;-84
2021/01/11 01:06:22;;;;;;;1.97;0.80;;;28.80;59.50;;;;;;5070470;28;20409;-84
2021/01/11 01:08:49;;;;;;;1.75;0.40;;;28.60;63.00;;;;;;5070327;28;20394;-83
2021/01/11 01:11:16;;;;;;;33.42;8.20;;;28.30;60.70;;;;;;5070596;28;20734;-83
2021/01/11 01:13:44;;;;;;;2.47;0.80;;;28.30;64.00;;;;;;5070918;28;20401;-84
2021/01/11 01:16:11;;;;;;;3.42;0.50;;;28.10;58.90;;;;;;5071209;28;20374;-84
2021/01/11 01:18:39;;;;;;;2.20;0.40;;;27.80;64.40;;;;;;5070440;28;20406;-84
2021/01/11 01:21:06;;;;;;;1.52;0.50;;;27.90;65.50;;;;;;5071006;28;20908;-83
2021/01/11 01:23:33;;;;;;;3.97;0.80;;;27.80;61.40;;;;;;5070956;28;20425;-85
2021/01/11 01:26:01;;;;;;;2.67;0.57;;;27.50;62.30;;;;;;5071383;28;20393;-85
2021/01/11 01:28:28;;;;;;;3.67;0.73;;;27.40;63.80;;;;;;5070629;28;20396;-87
2021/01/11 01:30:55;;;;;;;1.73;0.40;;;27.40;65.30;;;;;;5071051;28;20888;-84
2021/01/11 01:33:22;;;;;;;2.40;0.70;;;27.30;65.20;;;;;;5071934;28;21108;-86
2021/01/11 01:35:49;;;;;;;2.00;0.50;;;27.50;68.30;;;;;;5071361;28;20397;-88
2021/01/11 01:38:16;;;;;;;2.30;0.50;;;27.50;65.50;;;;;;5076295;28;20447;-86
2021/01/11 01:40:45;;;;;;;1.75;0.40;;;27.10;63.10;;;;;;5071009;28;20425;-85
2021/01/11 01:43:13;;;;;;;1.52;0.40;;;26.90;66.70;;;;;;5070811;28;20795;-85
2021/01/11 01:45:41;;;;;;;1.70;0.43;;;27.00;65.40;;;;;;5071904;28;20377;-86
2021/01/11 01:48:09;;;;;;;1.80;0.55;;;27.10;64.90;;;;;;5070471;28;20390;-84
2021/01/11 01:50:39;;;;;;;3.17;0.50;;;27.00;66.80;;;;;;5072136;28;20404;-84
2021/01/11 01:53:06;;;;;;;1.83;0.50;;;27.20;66.00;;;;;;5072246;28;20362;-85
2021/01/11 01:55:35;;;;;;;3.92;0.50;;;27.50;64.90;;;;;;5074984;28;20398;-85
2021/01/11 01:58:04;;;;;;;1.23;0.40;;;27.50;64.10;;;;;;5075258;28;20402;-84
2021/01/11 02:00:32;;;;;;;1.33;0.50;;;27.70;66.10;;;;;;5076829;28;20400;-85
2021/01/11 02:02:59;;;;;;;1.88;0.40;;;27.60;60.80;;;;;;5058327;28;20889;-84
2021/01/11 02:05:26;;;;;;;2.20;0.60;;;27.30;63.80;;;;;;5064548;28;20406;-84
2021/01/11 02:08:34;;;;;;;3.05;0.52;;;27.30;60.80;;;;;;5069675;28;20447;-85
2021/01/11 02:11:22;;;;;;;1.30;0.50;;;27.20;62.40;;;;;;5076816;28;20386;-84
2021/01/11 02:14:10;;;;;;;1.90;0.40;;;27.10;62.80;;;;;;5072645;28;20466;-84
2021/01/11 02:16:45;;;;;;;3.03;0.50;;;27.00;62.60;;;;;;5072072;28;20382;-84
2021/01/11 02:19:16;;;;;;;2.40;0.50;;;27.10;66.60;;;;;;5075762;28;20452;-85
2021/01/11 02:21:51;;;;;;;1.23;0.35;;;27.40;65.10;;;;;;5078302;28;20419;-84
2021/01/11 02:24:51;;;;;;;2.40;0.43;;;27.40;63.70;;;;;;5070219;28;20374;-85
2021/01/11 02:27:33;;;;;;;2.45;0.50;;;27.10;65.70;;;;;;5070200;28;20398;-85
2021/01/11 02:30:06;;;;;;;2.10;0.43;;;27.10;66.40;;;;;;5069482;28;20393;-85
2021/01/11 02:32:37;;;;;;;0.95;0.30;;;27.10;60.20;;;;;;5068840;28;20749;-84
2021/01/11 02:35:08;;;;;;;1.83;0.43;;;27.00;61.40;;;;;;5068628;28;20390;-84
2021/01/11 02:37:39;;;;;;;2.50;0.52;;;27.00;66.30;;;;;;5066848;28;20420;-85
2021/01/11 02:40:08;;;;;;;2.42;0.45;;;27.00;63.60;;;;;;5050668;28;20415;-85
2021/01/11 02:42:35;;;;;;;2.72;0.70;;;27.00;64.70;;;;;;5049372;28;20415;-85
2021/01/11 02:45:05;;;;;;;2.25;0.55;;;27.00;66.30;;;;;;5049485;28;20376;-85
2021/01/11 02:48:00;;;;;;;3.00;0.50;;;26.90;62.90;;;;;;5057642;28;20401;-85
2021/01/11 02:50:27;;;;;;;2.90;0.53;;;27.00;63.40;;;;;;5069307;28;20439;-85
2021/01/11 02:53:26;;;;;;;1.63;0.50;;;27.00;65.00;;;;;;5068634;28;20804;-82
2021/01/11 02:56:06;;;;;;;1.15;0.40;;;27.10;63.40;;;;;;5051785;28;20378;-84
2021/01/11 02:59:03;;;;;;;1.33;0.47;;;27.00;61.50;;;;;;5068941;28;20410;-85
2021/01/11 03:01:39;;;;;;;2.03;0.80;;;27.00;62.40;;;;;;5066772;28;20394;-83
2021/01/11 03:04:08;;;;;;;1.17;0.38;;;26.90;61.50;;;;;;5068409;28;20388;-84
2021/01/11 03:06:35;;;;;;;0.95;0.40;;;27.00;60.40;;;;;;5068627;28;20465;-83
2021/01/11 03:09:06;;;;;;;3.40;0.50;;;27.00;62.80;;;;;;5068757;28;20482;-83
2021/01/11 03:11:37;;;;;;;1.30;0.50;;;27.10;64.00;;;;;;5066310;28;20731;-83
2021/01/11 03:14:05;;;;;;;1.55;0.50;;;27.30;65.50;;;;;;5059577;28;20380;-83
2021/01/11 03:16:32;;;;;;;1.97;0.50;;;27.30;68.20;;;;;;5048637;28;20379;-83
2021/01/11 03:18:59;;;;;;;5.90;1.00;;;27.00;66.10;;;;;;5063311;28;20467;-83
2021/01/11 03:21:26;;;;;;;4.03;0.73;;;26.90;66.30;;;;;;5068179;28;20394;-83
2021/01/11 03:23:53;;;;;;;2.17;0.63;;;26.80;67.90;;;;;;5064291;28;20388;-83
2021/01/11 03:26:24;;;;;;;2.47;0.60;;;26.90;71.40;;;;;;5049200;28;20372;-82
2021/01/11 03:28:53;;;;;;;2.72;0.50;;;27.10;65.30;;;;;;5048732;28;20743;-83
2021/01/11 03:31:21;;;;;;;1.70;0.60;;;26.90;65.80;;;;;;5048682;28;20417;-83
2021/01/11 03:33:50;;;;;;;2.95;0.52;;;26.80;66.60;;;;;;5048461;28;20379;-83
2021/01/11 03:36:19;;;;;;;4.65;0.80;;;26.70;66.50;;;;;;5067393;28;20381;-84
2021/01/11 03:38:47;;;;;;;3.00;0.60;;;26.70;68.80;;;;;;5068264;28;20481;-83
2021/01/11 03:41:15;;;;;;;1.83;0.40;;;26.60;66.50;;;;;;5068160;28;21127;-83
2021/01/11 03:43:44;;;;;;;2.83;0.80;;;26.70;67.50;;;;;;5068446;28;20430;-83
2021/01/11 03:46:14;;;;;;;3.75;0.70;;;26.80;69.30;;;;;;5062513;28;20390;-82
2021/01/11 03:48:41;;;;;;;1.77;0.60;;;26.90;65.60;;;;;;5048686;28;20376;-84
2021/01/11 03:51:09;;;;;;;1.00;0.60;;;26.70;66.50;;;;;;5061768;28;20382;-84
2021/01/11 03:53:37;;;;;;;1.00;0.50;;;26.60;66.90;;;;;;5068439;28;20461;-84
2021/01/11 03:56:10;;;;;;;3.08;0.70;;;26.50;67.20;;;;;;5068499;28;20868;-84
2021/01/11 03:58:37;;;;;;;2.78;0.73;;;26.50;68.20;;;;;;5067809;28;20471;-84
2021/01/11 04:01:04;;;;;;;4.38;0.60;;;26.50;69.30;;;;;;5067170;28;20374;-84
2021/01/11 04:03:32;;;;;;;1.85;0.50;;;26.60;68.40;;;;;;5068402;28;20876;-83
2021/01/11 04:06:00;;;;;;;3.07;0.60;;;26.60;68.90;;;;;;5070694;28;20404;-84
2021/01/11 04:08:27;;;;;;;1.43;0.60;;;26.50;68.50;;;;;;5071932;28;20381;-83
2021/01/11 04:10:55;;;;;;;2.95;0.40;;;26.70;69.00;;;;;;5072436;28;20385;-84
2021/01/11 04:13:23;;;;;;;2.65;0.60;;;26.80;68.30;;;;;;5071559;28;20394;-84
2021/01/11 04:15:50;;;;;;;2.00;0.50;;;26.80;69.70;;;;;;5072235;28;20508;-84
2021/01/11 04:18:17;;;;;;;1.27;0.43;;;26.70;68.50;;;;;;5071433;28;20398;-84
2021/01/11 04:20:44;;;;;;;1.63;0.40;;;26.60;68.50;;;;;;5072320;28;20390;-84
2021/01/11 04:23:12;;;;;;;2.38;0.50;;;26.30;68.40;;;;;;5037261;28;20377;-85
2021/01/11 04:25:39;;;;;;;2.88;0.47;;;26.40;70.20;;;;;;5071465;28;20382;-84
2021/01/11 04:28:06;;;;;;;2.63;0.60;;;26.50;70.80;;;;;;5071455;28;20469;-84
2021/01/11 04:30:33;;;;;;;1.45;0.38;;;26.60;67.90;;;;;;5072045;28;20389;-85
2021/01/11 04:33:00;;;;;;;1.92;0.50;;;26.40;67.90;;;;;;5071693;28;20397;-85
2021/01/11 04:35:29;;;;;;;2.88;0.55;;;26.40;68.40;;;;;;5071336;28;20382;-85
2021/01/11 04:37:57;;;;;;;3.10;0.60;;;26.40;68.80;;;;;;5050267;28;20481;-84
2021/01/11 04:40:24;;;;;;;1.13;0.30;;;26.40;68.30;;;;;;5071083;28;20394;-84
2021/01/11 04:42:56;;;;;;;3.30;0.40;;;26.20;67.70;;;;;;5070842;28;20816;-84
2021/01/11 04:45:25;;;;;;;1.58;0.50;;;26.20;69.70;;;;;;5071722;28;20453;-85
2021/01/11 04:47:57;;;;;;;2.30;0.57;;;26.20;69.90;;;;;;5052582;28;20389;-86
2021/01/11 04:50:25;;;;;;;2.35;0.60;;;26.20;71.80;;;;;;5070848;28;20800;-86
2021/01/11 04:52:52;;;;;;;2.63;0.60;;;26.20;71.70;;;;;;5071003;28;20440;-86
2021/01/11 04:55:21;;;;;;;2.03;0.50;;;26.30;71.90;;;;;;5071518;28;20382;-85
2021/01/11 04:57:52;;;;;;;1.27;0.50;;;26.40;71.50;;;;;;5071185;28;20417;-85
2021/01/11 05:00:26;;;;;;;1.67;0.50;;;26.70;69.70;;;;;;5070746;28;20409;-84
2021/01/11 05:03:11;;;;;;;2.10;0.30;;;26.50;70.40;;;;;;5070789;28;20408;-84
2021/01/11 05:05:41;;;;;;;3.08;0.70;;;26.50;70.20;;;;;;5071612;28;20741;-84
2021/01/11 05:08:08;;;;;;;2.88;0.65;;;26.30;71.00;;;;;;5071324;28;20370;-84
2021/01/11 05:10:37;;;;;;;2.20;0.45;;;26.30;70.00;;;;;;5071275;28;20474;-83
2021/01/11 05:13:06;;;;;;;2.25;0.50;;;26.30;69.50;;;;;;5070510;28;20467;-84
2021/01/11 05:15:38;;;;;;;3.70;0.90;;;26.20;70.30;;;;;;5071340;28;20405;-85
2021/01/11 05:18:16;;;;;;;1.80;0.50;;;26.10;71.80;;;;;;5070194;28;20427;-85
2021/01/11 05:20:43;;;;;;;3.25;0.68;;;26.20;71.30;;;;;;5071166;28;20868;-84
2021/01/11 05:23:12;;;;;;;3.13;0.60;;;26.20;72.00;;;;;;5068883;28;20868;-87
2021/01/11 05:25:41;;;;;;;3.75;0.70;;;26.00;71.80;;;;;;5070520;28;20515;-84
2021/01/11 05:28:16;;;;;;;3.30;0.60;;;26.00;72.10;;;;;;5052909;28;20374;-83
2021/01/11 05:30:51;;;;;;;3.60;0.63;;;25.90;72.60;;;;;;5070101;28;20397;-83
2021/01/11 05:33:23;;;;;;;2.05;0.60;;;26.00;71.60;;;;;;5070720;28;20409;-83
2021/01/11 05:36:10;;;;;;;3.97;0.70;;;26.00;72.30;;;;;;5070558;28;20370;-84
2021/01/11 05:38:45;;;;;;;2.10;0.60;;;25.80;73.00;;;;;;5050445;28;20395;-85
2021/01/11 05:41:16;;;;;;;3.00;0.45;;;25.80;72.30;;;;;;5059170;28;20393;-84
2021/01/11 05:43:46;;;;;;;2.70;0.63;;;25.70;72.20;;;;;;5070570;28;20490;-85
2021/01/11 05:46:44;;;;;;;1.90;0.40;;;25.60;73.00;;;;;;5070070;28;20422;-84
2021/01/11 05:49:14;;;;;;;2.03;0.63;;;25.50;73.70;;;;;;5063019;28;20386;-85
2021/01/11 05:51:41;;;;;;;3.78;0.80;;;25.40;73.70;;;;;;5050517;28;21017;-84
2021/01/11 05:54:25;;;;;;;1.60;0.60;;;25.30;73.20;;;;;;5055229;28;20386;-83
2021/01/11 05:56:57;;;;;;;3.20;0.70;;;25.10;74.10;;;;;;5070757;28;20378;-84
2021/01/11 05:59:25;;;;;;;2.42;0.55;;;25.00;75.70;;;;;;5069425;28;20413;-85
2021/01/11 06:02:00;;;;;;;1.20;0.40;;;25.10;75.50;;;;;;5055325;28;20380;-84
2021/01/11 06:04:28;;;;;;;2.25;0.65;;;25.10;75.20;;;;;;5052958;28;20404;-84
2021/01/11 06:06:56;;;;;;;2.78;0.60;;;25.10;75.50;;;;;;5070321;28;20472;-85
2021/01/11 06:09:24;;;;;;;2.30;0.70;;;25.20;75.00;;;;;;5049410;28;20386;-85
2021/01/11 06:11:52;;;;;;;1.92;0.40;;;25.10;75.00;;;;;;5061886;28;20457;-84
2021/01/11 06:14:20;;;;;;;3.97;0.70;;;25.10;76.10;;;;;;5068712;28;20850;-82
2021/01/11 06:16:47;;;;;;;3.63;0.60;;;25.10;76.40;;;;;;5047358;28;20462;-82
2021/01/11 06:19:14;;;;;;;4.05;1.00;;;25.10;76.10;;;;;;5089950;28;20404;-83
2021/01/11 06:21:50;;;;;;;4.20;0.90;;;25.00;76.50;;;;;;5083168;28;20900;-83
2021/01/11 06:24:18;;;;;;;4.22;0.40;;;24.90;76.90;;;;;;5069996;28;20439;-84
2021/01/11 06:26:46;;;;;;;1.95;0.70;;;24.80;77.60;;;;;;5070424;28;20423;-83
2021/01/11 06:29:30;;;;;;;4.32;0.77;;;24.90;78.30;;;;;;5063311;28;20457;-83
2021/01/11 06:32:16;;;;;;;5.85;0.90;;;25.00;77.60;;;;;;5056460;28;20398;-83
2021/01/11 06:34:44;;;;;;;2.83;0.63;;;24.90;76.20;;;;;;5069743;28;20449;-82
2021/01/11 06:37:26;;;;;;;3.38;0.70;;;24.70;76.80;;;;;;5063192;28;20382;-82
2021/01/11 06:39:53;;;;;;;3.70;0.60;;;24.70;78.10;;;;;;5056864;28;20444;-82
2021/01/11 06:42:20;;;;;;;3.50;0.60;;;24.70;76.70;;;;;;5067756;28;20774;-83
2021/01/11 06:44:49;;;;;;;3.83;0.65;;;24.60;77.20;;;;;;5069252;28;20733;-82
2021/01/11 06:47:29;;;;;;;3.72;0.82;;;24.60;78.00;;;;;;5068496;28;20390;-82
2021/01/11 06:50:23;;;;;;;4.45;0.75;;;24.60;77.50;;;;;;5068202;28;20410;-83
2021/01/11 06:52:58;;;;;;;4.30;0.90;;;24.50;78.70;;;;;;5066404;28;21049;-84
2021/01/11 06:55:26;;;;;;;4.85;0.82;;;24.50;79.90;;;;;;5058109;28;20394;-85
2021/01/11 06:57:59;;;;;;;4.93;0.98;;;24.50;78.00;;;;;;5089086;28;20403;-84
2021/01/11 07:00:39;;;;;;;4.13;0.60;;;24.30;77.90;;;;;;5089456;28;20459;-83
2021/01/11 07:03:08;;;;;;;1.47;0.70;;;24.10;78.10;;;;;;5089465;28;20423;-82
2021/01/11 07:05:38;;;;;;;5.05;0.90;;;24.00;78.90;;;;;;5089316;28;20379;-83
2021/01/11 07:08:12;;;;;;;5.43;1.00;;;24.00;79.40;;;;;;5073648;28;20374;-83
2021/01/11 07:10:41;;;;;;;2.53;0.70;;;24.00;80.00;;;;;;5050972;28;20424;-82
2021/01/11 07:13:27;;;;;;;2.88;0.60;;;24.00;79.70;;;;;;5055648;28;20403;-82
2021/01/11 07:15:54;;;;;;;3.10;0.50;;;23.90;79.80;;;;;;5068808;28;20374;-83
2021/01/11 07:18:39;;;;;;;1.60;0.50;;;23.80;80.90;;;;;;5068160;28;20403;-83
2021/01/11 07:21:15;;;;;;;2.80;0.50;;;23.80;80.60;;;;;;5062418;28;20776;-83
2021/01/11 07:23:47;;;;;;;3.42;0.77;;;23.70;81.20;;;;;;5068886;28;20386;-83
2021/01/11 07:26:19;;;;;;;3.45;0.70;;;23.70;81.10;;;;;;5069050;28;20374;-83
2021/01/11 07:29:07;;;;;;;5.40;0.73;;;23.60;81.70;;;;;;5068947;28;20488;-83
2021/01/11 07:31:37;;;;;;;2.90;0.80;;;23.50;82.40;;;;;;5065427;28;20376;-83
2021/01/11 07:34:12;;;;;;;2.72;0.82;;;23.40;82.40;;;;;;5068448;28;20382;-85
2021/01/11 07:36:44;;;;;;;4.75;0.70;;;23.30;82.90;;;;;;5066914;28;20737;-85
2021/01/11 07:39:16;;;;;;;3.13;0.60;;;23.30;83.60;;;;;;5067320;28;20838;-84
2021/01/11 07:41:48;;;;;;;3.03;0.60;;;23.20;83.30;;;;;;5067562;28;20398;-84
2021/01/11 07:44:25;;;;;;;2.15;0.60;;;23.20;83.50;;;;;;5066080;28;20398;-84
2021/01/11 07:47:01;;;;;;;5.57;1.95;;;23.10;84.00;;;;;;5045971;28;20447;-86
2021/01/11 07:49:30;;;;;;;4.90;1.20;;;23.10;84.90;;;;;;5066664;28;20400;-83
2021/01/11 07:52:24;;;;;;;4.97;1.00;;;23.00;84.90;;;;;;5043896;28;20390;-82
2021/01/11 07:55:07;;;;;;;4.17;0.67;;;23.00;85.40;;;;;;5067822;28;20796;-83
2021/01/11 07:57:34;;;;;;;3.83;0.73;;;23.00;85.90;;;;;;5067357;28;20795;-83
2021/01/11 08:00:09;;;;;;;2.47;0.80;;;22.90;85.90;;;;;;5052120;28;20459;-84
2021/01/11 08:02:37;;;;;;;5.32;1.17;;;22.90;86.70;;;;;;5066705;28;20400;-84
2021/01/11 08:05:25;;;;;;;3.75;0.90;;;22.80;86.90;;;;;;5066944;28;20397;-82
2021/01/11 08:08:03;;;;;;;4.32;1.00;;;22.90;86.80;;;;;;5068340;28;20378;-83
2021/01/11 08:10:31;;;;;;;4.23;0.80;;;22.80;86.80;;;;;;5067957;28;20433;-84
2021/01/11 08:13:08;;;;;;;3.83;0.90;;;22.80;87.20;;;;;;5065443;28;20683;-83
2021/01/11 08:15:35;;;;;;;7.07;0.95;;;22.80;87.80;;;;;;5064550;28;20435;-83
2021/01/11 08:18:03;;;;;;;4.55;0.80;;;22.70;87.60;;;;;;5051215;28;20386;-84
2021/01/11 08:20:31;;;;;;;2.05;0.60;;;22.60;87.30;;;;;;5059460;28;20887;-86
2021/01/11 08:23:06;;;;;;;4.43;0.70;;;22.60;87.60;;;;;;5074030;28;20464;-84
2021/01/11 08:25:34;;;;;;;2.55;0.70;;;22.60;88.00;;;;;;5068878;28;20397;-85
2021/01/11 08:28:04;;;;;;;3.60;0.73;;;22.50;88.40;;;;;;5070204;28;20917;-86
2021/01/11 08:30:31;;;;;;;4.38;0.98;;;22.50;88.60;;;;;;5061967;28;20478;-86
2021/01/11 08:33:05;;;;;;;3.47;0.70;;;22.50;88.60;;;;;;5069509;28;20377;-86
2021/01/11 08:35:32;;;;;;;2.72;0.60;;;22.40;88.80;;;;;;5069861;28;20612;-87
2021/01/11 08:38:00;;;;;;;3.40;0.60;;;22.30;88.90;;;;;;5051257;28;20375;-88
2021/01/11 08:40:30;;;;;;;4.70;1.00;;;22.30;89.40;;;;;;5050839;28;20390;-87
2021/01/11 08:43:10;;;;;;;3.03;0.80;;;22.20;89.70;;;;;;5069528;28;20761;-85
2021/01/11 08:45:41;;;;;;;4.18;0.82;;;22.10;90.00;;;;;;5060420;28;20386;-89
2021/01/11 08:48:09;;;;;;;3.13;0.75;;;22.10;90.20;;;;;;5068843;28;20422;-88
2021/01/11 08:50:41;;;;;;;5.15;1.20;;;22.00;90.30;;;;;;5074547;28;20884;-87
2021/01/11 08:53:26;;;;;;;2.75;0.60;;;22.00;90.50;;;;;;5085682;28;20434;-87
2021/01/11 08:56:09;;;;;;;9.52;1.02;;;22.00;90.70;;;;;;5075316;28;20416;-86
2021/01/11 08:58:48;;;;;;;3.13;0.90;;;21.90;91.00;;;;;;5074577;28;20398;-87
2021/01/11 09:01:17;;;;;;;3.38;0.75;;;21.80;91.20;;;;;;5073161;28;20405;-86
2021/01/11 09:03:47;;;;;;;5.80;1.10;;;21.70;91.50;;;;;;5072685;28;20394;-85
2021/01/11 09:06:37;;;;;;;7.70;1.52;;;21.70;91.80;;;;;;5072816;28;20522;-87
2021/01/11 09:09:14;;;;;;;3.28;0.88;;;21.60;92.10;;;;;;5073082;28;20426;-85
2021/01/11 09:11:43;;;;;;;13.50;2.60;;;21.60;92.30;;;;;;5065042;28;20386;-84
2021/01/11 09:14:13;;;;;;;4.00;0.80;;;21.50;92.50;;;;;;5074697;28;20391;-86
2021/01/11 09:16:41;;;;;;;3.55;0.70;;;21.40;92.80;;;;;;5073668;28;20389;-87
2021/01/11 09:19:11;;;;;;;3.53;0.68;;;21.40;92.70;;;;;;5063654;28;20485;-88
2021/01/11 09:21:40;;;;;;;6.50;0.82;;;21.40;92.90;;;;;;5071558;28;20792;-87
2021/01/11 09:24:08;;;;;;;4.80;0.70;;;21.30;93.20;;;;;;5070134;28;20413;-86
2021/01/11 09:26:36;;;;;;;3.83;0.70;;;21.30;93.00;;;;;;5070526;28;20386;-87
2021/01/11 09:29:05;;;;;;;2.27;0.53;;;21.30;93.00;;;;;;5069133;28;20382;-88
2021/01/11 09:31:32;;;;;;;3.60;0.70;;;21.30;93.10;;;;;;5067725;28;20393;-87
2021/01/11 09:33:59;;;;;;;2.13;0.68;;;21.20;92.90;;;;;;5051595;28;20397;-87
2021/01/11 09:36:36;;;;;;;3.38;0.90;;;21.20;93.00;;;;;;5069281;28;20416;-87
2021/01/11 09:39:09;;;;;;;3.20;0.90;;;21.10;93.10;;;;;;5058070;28;20504;-86
2021/01/11 09:41:51;;;;;;;2.90;0.82;;;21.10;92.70;;;;;;5068805;28;21233;-87
2021/01/11 09:44:19;;;;;;;4.00;0.60;;;21.10;92.50;;;;;;5069140;28;20516;-85
2021/01/11 09:46:51;;;;;;;4.40;1.20;;;21.10;92.70;;;;;;5065831;28;20394;-85
2021/01/11 09:49:22;;;;;;;3.43;0.83;;;21.00;92.60;;;;;;5063125;28;21084;-86
2021/01/11 09:51:49;;;;;;;5.50;0.90;;;21.00;92.60;;;;;;5066615;28;20398;-86
2021/01/11 09:54:21;;;;;;;3.97;0.80;;;21.00;92.50;;;;;;5067616;28;20386;-87
2021/01/11 09:56:51;;;;;;;3.15;0.50;;;20.90;92.50;;;;;;5065229;28;20390;-85
2021/01/11 09:59:21;;;;;;;2.63;0.68;;;20.90;92.40;;;;;;5067194;28;20464;-86
2021/01/11 10:01:49;;;;;;;4.68;0.90;;;21.00;92.40;;;;;;5065255;28;20401;-86
2021/01/11 10:04:28;;;;;;;3.73;0.80;;;20.90;92.60;;;;;;5066308;28;20972;-85
2021/01/11 10:06:57;;;;;;;2.35;0.50;;;20.90;92.40;;;;;;5066064;28;20401;-87
2021/01/11 10:09:29;;;;;;;3.78;0.80;;;20.80;92.50;;;;;;5068141;28;20408;-87
2021/01/11 10:12:05;;;;;;;4.05;0.60;;;20.80;92.60;;;;;;5066697;28;20413;-88
2021/01/11 10:14:35;;;;;;;4.03;0.80;;;20.90;92.50;;;;;;5051942;28;20396;-84
2021/01/11 10:17:12;;;;;;;4.75;0.93;;;20.90;92.40;;;;;;5061648;28;20451;-86
2021/01/11 10:19:42;;;;;;;4.00;0.70;;;20.80;92.60;;;;;;5052068;28;20768;-87
2021/01/11 10:22:09;;;;;;;2.97;0.77;;;20.80;92.90;;;;;;5048517;28;20379;-88
2021/01/11 10:24:36;;;;;;;2.90;0.68;;;20.70;92.90;;;;;;5057886;28;20910;-86
2021/01/11 10:27:09;;;;;;;4.20;0.73;;;20.70;92.90;;;;;;5062715;28;20425;-86
2021/01/11 10:29:36;;;;;;;6.07;0.80;;;20.60;93.20;;;;;;5053245;28;20395;-86
2021/01/11 10:32:06;;;;;;;3.60;0.70;;;20.60;93.20;;;;;;5061493;28;20878;-87
2021/01/11 10:34:33;;;;;;;4.45;0.70;;;20.60;93.40;;;;;;5054624;28;20411;-85
2021/01/11 10:37:03;;;;;;;5.40;0.80;;;20.60;93.50;;;;;;5065725;28;20393;-87
2021/01/11 10:39:30;;;;;;;5.28;0.70;;;20.60;93.30;;;;;;5064366;28;20394;-87
2021/01/11 10:41:58;;;;;;;2.90;0.70;;;20.60;93.50;;;;;;5038194;28;20439;-86
2021/01/11 10:44:26;;;;;;;4.00;0.60;;;20.60;93.70;;;;;;5062370;28;20566;-87
2021/01/11 10:47:01;;;;;;;3.78;0.63;;;20.60;93.90;;;;;;5066473;28;20381;-86
2021/01/11 10:49:31;;;;;;;4.90;0.90;;;20.50;94.10;;;;;;5062964;28;21428;-90
2021/01/11 10:51:59;;;;;;;4.57;1.00;;;20.60;94.20;;;;;;5063087;28;20491;-90
2021/01/11 10:54:26;;;;;;;4.72;0.70;;;20.60;94.30;;;;;;5048549;28;20444;-90
2021/01/11 10:56:54;;;;;;;5.60;1.00;;;20.50;94.50;;;;;;5063601;28;20411;-89
2021/01/11 10:59:21;;;;;;;3.38;0.82;;;20.40;94.90;;;;;;5061547;28;20397;-88
2021/01/11 11:01:55;;;;;;;2.58;0.77;;;20.40;95.10;;;;;;5068902;28;20382;-89
2021/01/11 11:04:23;;;;;;;4.43;0.70;;;20.40;95.20;;;;;;5055467;28;20529;-88
2021/01/11 11:06:51;;;;;;;7.30;0.83;;;20.40;95.40;;;;;;5063606;28;20457;-89
2021/01/11 11:09:18;;;;;;;4.40;0.63;;;20.40;95.50;;;;;;5058270;28;20375;-87
2021/01/11 11:11:50;;;;;;;3.63;0.70;;;20.30;95.80;;;;;;5059665;28;20386;-90
2021/01/11 11:14:17;;;;;;;5.55;1.00;;;20.30;95.90;;;;;;5056649;28;20388;-89
2021/01/11 11:16:44;;;;;;;4.10;0.88;;;20.30;96.20;;;;;;5049099;28;20805;-89
2021/01/11 11:19:13;;;;;;;5.80;1.00;;;20.20;96.30;;;;;;5050121;28;20401;-89
2021/01/11 11:21:40;;;;;;;4.93;0.90;;;20.30;96.30;;;;;;5068183;28;20410;-89
2021/01/11 11:24:07;;;;;;;5.78;0.80;;;20.20;96.50;;;;;;5066955;28;20463;-90
2021/01/11 11:26:34;;;;;;;5.25;1.13;;;20.20;96.90;;;;;;5067360;28;20390;-89
2021/01/11 11:29:01;;;;;;;4.93;0.93;;;20.20;97.00;;;;;;5069165;28;20409;-89
2021/01/11 11:31:33;;;;;;;4.75;0.95;;;20.10;97.10;;;;;;5065695;28;20413;-88
2021/01/11 11:34:01;;;;;;;5.88;1.08;;;20.10;97.30;;;;;;5048228;28;20402;-88
2021/01/11 11:36:28;;;;;;;6.85;1.17;;;20.10;97.30;;;;;;5066763;28;20430;-90
2021/01/11 11:38:55;;;;;;;3.25;1.00;;;20.10;97.30;;;;;;5068136;28;21531;-88
2021/01/11 11:41:22;;;;;;;3.88;1.00;;;20.10;97.50;;;;;;5042658;28;20400;-87
2021/01/11 11:43:49;;;;;;;4.38;0.90;;;20.10;97.50;;;;;;5056590;28;20404;-88
2021/01/11 11:46:16;;;;;;;4.05;0.70;;;20.10;97.70;;;;;;5067915;28;20431;-88
2021/01/11 11:48:43;;;;;;;3.47;0.90;;;20.10;97.70;;;;;;5068057;28;20500;-88
2021/01/11 11:51:10;;;;;;;4.10;0.88;;;20.10;97.80;;;;;;5067953;28;20386;-89
2021/01/11 11:53:39;;;;;;;4.55;1.15;;;20.10;97.70;;;;;;5066957;28;20386;-88
2021/01/11 11:56:06;;;;;;;5.15;1.10;;;20.10;97.70;;;;;;5068460;28;20377;-89
2021/01/11 11:58:33;;;;;;;6.70;1.10;;;20.10;97.80;;;;;;5067039;28;20400;-87
2021/01/11 12:01:00;;;;;;;7.43;1.40;;;20.10;98.00;;;;;;5066842;28;20424;-88
2021/01/11 12:03:27;;;;;;;6.53;1.10;;;20.00;97.80;;;;;;5058029;28;20398;-88
2021/01/11 12:05:54;;;;;;;6.65;1.00;;;20.10;97.80;;;;;;5066954;28;20394;-88
2021/01/11 12:08:21;;;;;;;4.83;1.03;;;20.00;97.80;;;;;;5067166;28;20866;-88
2021/01/11 12:10:48;;;;;;;7.10;1.13;;;20.00;97.90;;;;;;5066645;28;20402;-88
2021/01/11 12:13:15;;;;;;;4.88;1.05;;;19.90;98.00;;;;;;5064737;28;20413;-87
2021/01/11 12:15:42;;;;;;;5.88;1.10;;;19.90;98.20;;;;;;5061364;28;20917;-89
2021/01/11 12:18:09;;;;;;;4.28;0.80;;;19.90;98.30;;;;;;5062865;28;20393;-87
2021/01/11 12:20:36;;;;;;;6.10;1.00;;;19.90;98.30;;;;;;5066547;28;20386;-88
2021/01/11 12:23:03;;;;;;;5.47;1.00;;;19.90;98.20;;;;;;5065884;28;20791;-87
2021/01/11 12:25:31;;;;;;;5.45;0.98;;;19.90;98.20;;;;;;5068724;28;20463;-88
2021/01/11 12:27:58;;;;;;;5.87;1.27;;;19.90;98.30;;;;;;5070583;28;20481;-88
2021/01/11 12:30:25;;;;;;;6.97;1.00;;;19.90;98.20;;;;;;5070597;28;20394;-88
2021/01/11 12:32:52;;;;;;;6.05;0.98;;;19.80;98.20;;;;;;5067153;28;20417;-89
2021/01/11 12:35:19;;;;;;;7.40;1.17;;;19.80;98.50;;;;;;5071315;28;20425;-88
2021/01/11 12:37:48;;;;;;;6.95;1.02;;;19.70;98.50;;;;;;5070687;28;20517;-89
2021/01/11 12:40:16;;;;;;;3.25;0.90;;;19.70;98.60;;;;;;5071227;28;20946;-89
2021/01/11 12:42:43;;;;;;;4.63;1.23;;;19.70;98.50;;;;;;5050378;28;20489;-87
2021/01/11 12:45:10;;;;;;;5.80;1.10;;;19.80;98.40;;;;;;5051890;28;20459;-88
2021/01/11 12:47:38;;;;;;;4.20;0.90;;;19.80;98.30;;;;;;5070067;28;20507;-88
2021/01/11 12:50:07;;;;;;;8.50;1.23;;;19.80;98.20;;;;;;5070670;28;20480;-89
2021/01/11 12:52:35;;;;;;;4.37;1.30;;;19.80;98.20;;;;;;5069491;28;20575;-88
2021/01/11 12:55:02;;;;;;;6.25;1.40;;;19.80;98.10;;;;;;5071087;28;20398;-89
2021/01/11 12:57:32;;;;;;;5.53;1.33;;;19.80;98.20;;;;;;5070270;28;20421;-88
2021/01/11 13:00:00;;;;;;;6.57;0.90;;;19.80;98.20;;;;;;5052043;28;20417;-88
2021/01/11 13:02:27;;;;;;;3.83;1.40;;;19.90;98.00;;;;;;5069573;28;20449;-88
2021/01/11 13:04:54;;;;;;;6.07;0.98;;;19.80;98.00;;;;;;5069997;28;20392;-87
2021/01/11 13:07:21;;;;;;;4.45;0.90;;;19.80;98.00;;;;;;5069686;28;20417;-88